Impacts METAR Board INFO
IDs:

KEWR - Newark Intl, NJ, US

Updated at: 2115 UTC 17 Dec 2017
Potential Impact None Slight Moderate High
Time17/09Z 17/10Z 17/11Z 17/12Z 17/13Z 17/14Z 17/15Z 17/16Z 17/17Z 17/18Z 17/19Z 17/20Z 17/21Z
VIS10 10 10 10 10 10 10 10 10 10 10 10 10
CIG40 42 70 45 48 48 50 49 50 100 100 100 210
CoverOVCOVCOVCOVCBKNOVCOVCOVCOVCBKNBKNOVCBKN
FltCatVFRVFRVFRVFRVFRVFRVFRVFRVFRVFRVFRVFRVFR
WX--------------------------
WDir3030302020004000605070
WSpd5 6 5 5 5 0 0 4 0 0 4 4 3
WGst-- -- -- -- -- -- -- -- -- -- -- -- --
Raw hourly METARs
KEWR 170851Z 03005KT 10SM FEW033 OVC040 01/M06 A3027 RMK AO2 SLP248 T00061056 51017
KEWR 170951Z 03006KT 10SM OVC042 01/M06 A3027 RMK AO2 SLP248 T00061056
KEWR 171051Z 03005KT 10SM FEW042 SCT050 OVC070 01/M06 A3026 RMK AO2 SLP245 T00061056
KEWR 171151Z 02005KT 10SM BKN045 OVC070 00/M06 A3028 RMK AO2 SLP252 T00001056 10011 20000 53004
KEWR 171251Z 02005KT 10SM BKN048 BKN070 00/M06 A3029 RMK AO2 SLP255 T00001056
KEWR 171351Z 00000KT 10SM BKN048 BKN070 OVC100 01/M06 A3030 RMK AO2 SLP259 T00111056
KEWR 171451Z 00000KT 10SM BKN050 BKN070 OVC100 01/M06 A3031 RMK AO2 SLP262 T00111056 53010
KEWR 171551Z 04004KT 10SM BKN049 BKN070 OVC100 02/M05 A3029 RMK AO2 SLP257 T00171050
KEWR 171651Z 00000KT 10SM BKN050 BKN070 OVC100 02/M05 A3029 RMK AO2 SLP256 T00171050
KEWR 171751Z 00000KT 10SM FEW049 BKN100 BKN220 03/M04 A3026 RMK AO2 SLP245 T00331044 10033 20000 58017
KEWR 171851Z 06004KT 10SM SCT049 BKN100 BKN210 03/M04 A3024 RMK AO2 SLP239 T00281044
KEWR 171951Z 05004KT 10SM FEW049 BKN100 OVC210 03/M04 A3024 RMK AO2 SLP238 T00281044
KEWR 172051Z 07003KT 10SM FEW049 SCT100 BKN210 BKN260 03/M04 A3024 RMK AO2 SLP239 T00281039 55007